createdAt,value
2017-11-11T00:00:36.476Z,0.00
2017-11-11T00:01:36.469Z,0.00
2017-11-11T00:02:36.474Z,0.00
2017-11-11T00:03:36.464Z,0.00
2017-11-11T00:04:36.468Z,0.00
2017-11-11T00:05:36.456Z,0.00
2017-11-11T00:06:36.447Z,0.00
2017-11-11T00:07:36.443Z,0.00
2017-11-11T00:08:36.464Z,0.00
2017-11-11T00:09:36.430Z,0.00
2017-11-11T00:10:36.426Z,0.00
2017-11-11T00:11:36.435Z,0.00
2017-11-11T00:12:36.414Z,0.00
2017-11-11T00:13:36.420Z,0.00
2017-11-11T00:14:36.411Z,0.00
2017-11-11T00:15:36.411Z,0.00
2017-11-11T00:16:36.392Z,0.00
2017-11-11T00:17:36.393Z,0.00
2017-11-11T00:18:36.381Z,0.00
2017-11-11T00:19:36.389Z,0.00
2017-11-11T00:20:36.374Z,0.00
2017-11-11T00:21:36.364Z,0.00
2017-11-11T00:22:36.364Z,0.00
2017-11-11T00:23:36.359Z,0.00
2017-11-11T00:24:36.371Z,0.00
2017-11-11T00:25:36.344Z,0.00
2017-11-11T00:26:36.354Z,0.00
2017-11-11T00:27:36.332Z,0.00
2017-11-11T00:28:36.325Z,0.00
2017-11-11T00:29:36.320Z,0.00
2017-11-11T00:30:36.311Z,0.00
2017-11-11T00:31:36.332Z,0.00
2017-11-11T00:32:36.306Z,0.00
2017-11-11T00:33:36.299Z,0.00
2017-11-11T00:34:36.303Z,0.00
2017-11-11T00:35:36.287Z,0.00
2017-11-11T00:36:36.311Z,0.00
2017-11-11T00:37:36.277Z,0.00
2017-11-11T00:38:36.275Z,0.00
2017-11-11T00:39:36.265Z,0.00
2017-11-11T00:40:36.272Z,0.00
2017-11-11T00:41:36.255Z,0.00
2017-11-11T00:42:36.249Z,0.00
2017-11-11T00:43:36.239Z,0.00
2017-11-11T00:44:36.258Z,0.00
2017-11-11T00:45:36.227Z,0.00
2017-11-11T00:46:36.237Z,0.00
2017-11-11T00:47:36.227Z,0.00
2017-11-11T00:48:36.259Z,0.00
2017-11-11T00:49:36.211Z,0.00
2017-11-11T00:50:36.248Z,0.00
2017-11-11T00:51:36.203Z,0.00
2017-11-11T00:52:36.231Z,0.00
2017-11-11T00:53:36.185Z,0.00
2017-11-11T00:54:36.225Z,0.00
2017-11-11T00:55:36.177Z,0.00
2017-11-11T00:56:36.211Z,0.00
2017-11-11T00:57:36.167Z,0.00
2017-11-11T00:58:36.156Z,0.00
2017-11-11T00:59:36.157Z,0.00
2017-11-11T01:00:36.148Z,0.00
2017-11-11T01:01:36.155Z,0.00
2017-11-11T01:02:36.139Z,0.00
2017-11-11T01:03:36.180Z,0.00
2017-11-11T01:04:36.159Z,0.00
2017-11-11T01:05:36.124Z,0.00
2017-11-11T01:06:36.132Z,0.00
2017-11-11T01:07:36.111Z,0.00
2017-11-11T01:08:36.110Z,0.00
2017-11-11T01:09:36.100Z,0.00
2017-11-11T01:10:36.091Z,0.00
2017-11-11T01:11:36.092Z,0.00
2017-11-11T01:12:36.087Z,0.00
2017-11-11T01:13:36.080Z,0.00
2017-11-11T01:14:36.075Z,0.00
2017-11-11T01:15:36.070Z,0.00
2017-11-11T01:16:36.065Z,0.00
2017-11-11T01:17:36.054Z,0.00
2017-11-11T01:18:36.054Z,0.00
2017-11-11T01:19:36.051Z,0.00
2017-11-11T01:20:36.051Z,0.00
2017-11-11T01:21:36.038Z,0.00
2017-11-11T01:22:36.034Z,0.00
2017-11-11T01:23:36.027Z,0.00
2017-11-11T01:24:36.019Z,0.00
2017-11-11T01:25:36.040Z,0.00
2017-11-11T01:26:36.012Z,0.00
2017-11-11T01:27:36.007Z,0.00
2017-11-11T01:28:36.000Z,0.00
2017-11-11T01:29:35.995Z,0.00
2017-11-11T01:30:35.982Z,0.00
2017-11-11T01:31:35.980Z,0.00
2017-11-11T01:32:36.005Z,0.00
2017-11-11T01:33:35.982Z,0.00
2017-11-11T01:34:35.976Z,0.00
2017-11-11T01:35:35.970Z,0.00
2017-11-11T01:36:35.956Z,0.00
2017-11-11T01:37:35.948Z,0.00
2017-11-11T01:38:35.943Z,0.00
2017-11-11T01:39:35.937Z,0.00
2017-11-11T01:40:35.931Z,0.00
2017-11-11T01:41:35.931Z,0.00
2017-11-11T01:42:35.929Z,0.00
2017-11-11T01:43:35.919Z,0.00
2017-11-11T01:44:35.948Z,0.00
2017-11-11T01:45:35.908Z,0.00
2017-11-11T01:46:35.902Z,0.00
2017-11-11T01:47:35.894Z,0.00
2017-11-11T01:48:35.945Z,0.00
2017-11-11T01:49:35.887Z,0.00
2017-11-11T01:50:35.885Z,0.00
2017-11-11T01:51:35.876Z,0.00
2017-11-11T01:52:35.866Z,0.00
2017-11-11T01:53:35.870Z,0.00
2017-11-11T01:54:35.855Z,0.00
2017-11-11T01:55:35.861Z,0.00
2017-11-11T01:56:35.847Z,0.00
2017-11-11T01:57:35.862Z,0.00
2017-11-11T01:58:35.860Z,0.00
2017-11-11T01:59:35.833Z,0.00
2017-11-11T02:00:35.842Z,0.00
2017-11-11T02:01:35.820Z,0.00
2017-11-11T02:02:35.825Z,0.00
2017-11-11T02:03:35.827Z,0.00
2017-11-11T02:04:35.801Z,0.00
2017-11-11T02:05:35.831Z,0.00
2017-11-11T02:06:35.792Z,0.00
2017-11-11T02:07:35.803Z,0.00
2017-11-11T02:08:35.788Z,0.00
2017-11-11T02:09:35.784Z,0.00
2017-11-11T02:10:35.776Z,0.00
2017-11-11T02:11:35.764Z,0.00
2017-11-11T02:12:35.768Z,0.00
2017-11-11T02:13:35.759Z,0.00
2017-11-11T02:14:35.752Z,0.00
2017-11-11T02:15:35.747Z,0.00
2017-11-11T02:16:35.738Z,0.00
2017-11-11T02:17:35.731Z,0.00
2017-11-11T02:18:35.728Z,0.00
2017-11-11T02:19:35.724Z,0.00
2017-11-11T02:20:35.730Z,0.00
2017-11-11T02:21:35.733Z,0.00
2017-11-11T02:22:35.713Z,0.00
2017-11-11T02:23:35.701Z,0.00
2017-11-11T02:24:35.702Z,0.00
2017-11-11T02:25:35.695Z,0.00
2017-11-11T02:26:35.682Z,0.00
2017-11-11T02:27:35.681Z,0.00
2017-11-11T02:28:35.693Z,0.00
2017-11-11T02:29:35.686Z,0.00
2017-11-11T02:30:35.682Z,0.00
2017-11-11T02:31:35.667Z,0.00
2017-11-11T02:32:35.650Z,0.00
2017-11-11T02:33:35.649Z,0.00
2017-11-11T02:34:35.643Z,0.00
2017-11-11T02:35:35.645Z,0.00
2017-11-11T02:36:35.632Z,0.00
2017-11-11T02:37:35.634Z,0.00
2017-11-11T02:38:35.625Z,0.00
2017-11-11T02:39:35.618Z,0.00
2017-11-11T02:40:35.613Z,0.00
2017-11-11T02:41:35.607Z,0.00
2017-11-11T02:42:35.597Z,0.00
2017-11-11T02:43:35.596Z,0.00
2017-11-11T02:44:35.591Z,0.00
2017-11-11T02:45:35.583Z,0.00
2017-11-11T02:46:35.603Z,0.00
2017-11-11T02:47:35.584Z,0.00
2017-11-11T02:48:35.566Z,0.00
2017-11-11T02:49:35.572Z,0.00
2017-11-11T02:50:35.581Z,0.00
2017-11-11T02:51:35.549Z,0.00
2017-11-11T02:52:35.550Z,0.00
2017-11-11T02:53:35.540Z,0.00
2017-11-11T02:54:35.549Z,0.00
2017-11-11T02:55:35.542Z,0.00
2017-11-11T02:56:35.521Z,0.00
2017-11-11T02:57:35.537Z,0.00
2017-11-11T02:58:35.517Z,0.00
2017-11-11T02:59:35.505Z,0.00
2017-11-11T03:00:35.508Z,0.00
2017-11-11T03:01:35.532Z,0.00
2017-11-11T03:02:35.494Z,0.00
2017-11-11T03:03:35.486Z,0.00
2017-11-11T03:04:35.482Z,0.00
2017-11-11T03:05:35.488Z,0.00
2017-11-11T03:06:35.468Z,0.00
2017-11-11T03:07:35.459Z,0.00
2017-11-11T03:08:35.459Z,0.00
2017-11-11T03:09:35.459Z,0.00
2017-11-11T03:10:35.465Z,0.00
2017-11-11T03:11:35.441Z,0.00
2017-11-11T03:12:35.441Z,0.00
2017-11-11T03:13:35.429Z,0.00
2017-11-11T03:14:35.428Z,0.00
2017-11-11T03:15:35.428Z,0.00
2017-11-11T03:16:35.413Z,0.00
2017-11-11T03:17:35.409Z,0.00
2017-11-11T03:18:35.416Z,0.00
2017-11-11T03:19:35.393Z,0.00
2017-11-11T03:20:35.397Z,0.00
2017-11-11T03:21:35.386Z,0.00
2017-11-11T03:22:35.386Z,0.00
2017-11-11T03:23:35.375Z,0.00
2017-11-11T03:24:35.371Z,0.00
2017-11-11T03:25:35.366Z,0.00
2017-11-11T03:26:35.368Z,0.00
2017-11-11T03:27:35.361Z,0.00
2017-11-11T03:28:35.348Z,0.00
2017-11-11T03:29:35.341Z,0.00
2017-11-11T03:30:35.345Z,0.00
2017-11-11T03:31:35.365Z,0.00
2017-11-11T03:32:35.327Z,0.00
2017-11-11T03:33:35.321Z,0.00
2017-11-11T03:34:35.323Z,0.00
2017-11-11T03:35:35.318Z,0.00
2017-11-11T03:36:35.308Z,0.00
2017-11-11T03:37:35.299Z,0.00
2017-11-11T03:38:35.312Z,0.00
2017-11-11T03:39:35.297Z,0.00
2017-11-11T03:40:35.287Z,0.00
2017-11-11T03:41:35.286Z,0.00
2017-11-11T03:42:35.277Z,0.00
2017-11-11T03:43:35.267Z,0.00
2017-11-11T03:44:35.261Z,0.00
2017-11-11T03:45:35.254Z,0.00
2017-11-11T03:46:35.258Z,0.00
2017-11-11T03:47:35.253Z,0.00
2017-11-11T03:48:35.248Z,0.00
2017-11-11T03:49:35.245Z,0.00
2017-11-11T03:50:35.242Z,0.00
2017-11-11T03:51:35.242Z,0.00
2017-11-11T03:52:35.217Z,0.00
2017-11-11T03:53:35.229Z,0.00
2017-11-11T03:54:35.211Z,0.00
2017-11-11T03:55:35.207Z,0.00
2017-11-11T03:56:35.219Z,0.00
2017-11-11T03:57:35.193Z,0.00
2017-11-11T03:58:35.192Z,0.00
2017-11-11T03:59:35.182Z,0.00
2017-11-11T04:00:35.197Z,0.00
2017-11-11T04:01:35.180Z,0.00
2017-11-11T04:02:35.176Z,0.00
2017-11-11T04:03:35.168Z,0.00
2017-11-11T04:04:35.172Z,0.00
2017-11-11T04:05:35.150Z,0.00
2017-11-11T04:06:35.150Z,0.00
2017-11-11T04:07:35.141Z,0.00
2017-11-11T04:08:35.148Z,0.00
2017-11-11T04:09:35.128Z,0.00
2017-11-11T04:10:35.143Z,0.00
2017-11-11T04:11:35.120Z,0.00
2017-11-11T04:12:35.114Z,0.00
2017-11-11T04:13:35.127Z,0.00
2017-11-11T04:14:35.101Z,0.00
2017-11-11T04:15:35.097Z,0.00
2017-11-11T04:16:35.093Z,0.00
2017-11-11T04:17:35.095Z,0.00
2017-11-11T04:18:35.084Z,0.00
2017-11-11T04:19:35.074Z,0.00
2017-11-11T04:20:35.077Z,0.00
2017-11-11T04:21:35.088Z,0.00
2017-11-11T04:22:35.095Z,0.00
2017-11-11T04:23:35.062Z,0.00
2017-11-11T04:24:35.054Z,0.00
2017-11-11T04:25:35.046Z,0.00
2017-11-11T04:26:35.044Z,0.00
2017-11-11T04:27:35.039Z,0.00
2017-11-11T04:28:35.028Z,0.00
2017-11-11T04:29:35.019Z,0.00
2017-11-11T04:30:35.019Z,0.00
2017-11-11T04:31:35.010Z,0.00
2017-11-11T04:32:35.022Z,0.00
2017-11-11T04:33:35.004Z,0.00
2017-11-11T04:34:34.994Z,0.00
2017-11-11T04:35:34.994Z,0.00
2017-11-11T04:36:34.992Z,0.00
2017-11-11T04:37:34.985Z,0.00
2017-11-11T04:38:34.974Z,0.00
2017-11-11T04:39:34.970Z,0.00
2017-11-11T04:40:34.969Z,0.00
2017-11-11T04:41:34.954Z,0.00
2017-11-11T04:42:34.952Z,0.00
2017-11-11T04:43:34.962Z,0.00
2017-11-11T04:44:34.946Z,0.00
2017-11-11T04:45:34.931Z,0.00
2017-11-11T04:46:34.939Z,0.00
2017-11-11T04:47:34.936Z,0.00
2017-11-11T04:48:34.914Z,0.00
2017-11-11T04:49:34.921Z,0.00
2017-11-11T04:50:34.924Z,0.00
2017-11-11T04:51:34.908Z,0.00
2017-11-11T04:52:34.900Z,0.00
2017-11-11T04:53:34.910Z,0.00
2017-11-11T04:54:34.888Z,0.00
2017-11-11T04:55:34.879Z,0.00
2017-11-11T04:56:34.879Z,0.00
2017-11-11T04:57:34.873Z,0.00
2017-11-11T04:58:34.857Z,0.00
2017-11-11T04:59:34.882Z,0.00
2017-11-11T05:00:34.863Z,0.00
2017-11-11T05:01:34.862Z,0.00
2017-11-11T05:02:34.843Z,0.00
2017-11-11T05:03:34.832Z,0.00
2017-11-11T05:04:34.833Z,0.00
2017-11-11T05:05:34.819Z,0.00
2017-11-11T05:06:34.822Z,0.00
2017-11-11T05:07:34.813Z,0.00
2017-11-11T05:08:34.807Z,0.00
2017-11-11T05:09:34.798Z,0.00
2017-11-11T05:10:34.797Z,0.00
2017-11-11T05:11:34.795Z,0.00
2017-11-11T05:12:34.779Z,0.00
2017-11-11T05:13:34.780Z,0.00
2017-11-11T05:14:34.794Z,0.00
2017-11-11T05:15:34.767Z,0.00
2017-11-11T05:16:34.757Z,0.00
2017-11-11T05:17:34.753Z,0.00
2017-11-11T05:18:34.744Z,0.00
2017-11-11T05:19:34.753Z,0.00
2017-11-11T05:20:34.732Z,0.00
2017-11-11T05:21:34.736Z,0.00
2017-11-11T05:22:34.731Z,0.00
2017-11-11T05:23:34.727Z,0.00
2017-11-11T05:24:34.716Z,0.00
2017-11-11T05:25:34.713Z,0.00
2017-11-11T05:26:34.703Z,0.00
2017-11-11T05:27:34.698Z,0.00
2017-11-11T05:28:34.700Z,0.00
2017-11-11T05:29:34.688Z,0.00
2017-11-11T05:30:34.697Z,0.00
2017-11-11T05:31:34.673Z,0.00
2017-11-11T05:32:34.665Z,0.00
2017-11-11T05:33:34.661Z,0.00
2017-11-11T05:34:34.668Z,0.00
2017-11-11T05:35:34.665Z,0.00
2017-11-11T05:36:34.646Z,0.00
2017-11-11T05:37:34.636Z,0.00
2017-11-11T05:38:34.646Z,0.00
2017-11-11T05:39:34.628Z,0.00
2017-11-11T05:40:34.624Z,0.00
2017-11-11T05:41:34.614Z,0.00
2017-11-11T05:42:34.609Z,0.00
2017-11-11T05:43:34.640Z,0.00
2017-11-11T05:44:34.604Z,0.00
2017-11-11T05:45:34.598Z,0.00
2017-11-11T05:46:34.599Z,0.00
2017-11-11T05:47:34.580Z,4.00
2017-11-11T05:48:34.581Z,4.00
2017-11-11T05:49:34.565Z,0.00
2017-11-11T05:50:34.560Z,0.00
2017-11-11T05:51:34.564Z,4.00
2017-11-11T05:52:34.552Z,0.00
2017-11-11T05:53:34.543Z,4.00
2017-11-11T05:54:34.539Z,4.00
2017-11-11T05:55:34.530Z,4.00
2017-11-11T05:56:34.523Z,4.00
2017-11-11T05:57:34.515Z,4.00
2017-11-11T05:58:34.513Z,8.00
2017-11-11T05:59:34.513Z,12.00
2017-11-11T06:00:34.505Z,12.00
2017-11-11T06:01:34.517Z,16.00
2017-11-11T06:02:34.488Z,24.00
2017-11-11T06:03:34.493Z,24.00
2017-11-11T06:04:34.478Z,32.00
2017-11-11T06:05:34.520Z,36.00
2017-11-11T06:06:34.466Z,40.00
2017-11-11T06:07:34.464Z,48.00
2017-11-11T06:08:34.464Z,56.00
2017-11-11T06:09:34.474Z,68.00
2017-11-11T06:10:34.442Z,76.00
2017-11-11T06:11:34.443Z,88.00
2017-11-11T06:12:34.438Z,100.00
2017-11-11T06:13:34.430Z,112.00
2017-11-11T06:14:34.419Z,132.00
2017-11-11T06:15:34.414Z,136.00
2017-11-11T06:16:34.416Z,152.00
2017-11-11T06:17:34.412Z,168.00
2017-11-11T06:18:34.411Z,180.00
2017-11-11T06:19:34.389Z,196.00
2017-11-11T06:20:34.384Z,212.00
2017-11-11T06:21:34.387Z,232.00
2017-11-11T06:22:34.376Z,248.00
2017-11-11T06:23:34.366Z,268.00
2017-11-11T06:24:34.363Z,284.00
2017-11-11T06:25:34.356Z,312.00
2017-11-11T06:26:34.350Z,344.00
2017-11-11T06:27:34.371Z,360.00
2017-11-11T06:28:34.338Z,376.00
2017-11-11T06:29:34.344Z,396.00
2017-11-11T06:30:34.334Z,420.00
2017-11-11T06:31:34.323Z,444.00
2017-11-11T06:32:34.319Z,472.00
2017-11-11T06:33:34.312Z,516.00
2017-11-11T06:34:34.332Z,552.00
2017-11-11T06:35:34.297Z,604.00
2017-11-11T06:36:34.293Z,652.00
2017-11-11T06:37:34.285Z,660.00
2017-11-11T06:38:34.274Z,724.00
2017-11-11T06:39:34.273Z,764.00
2017-11-11T06:40:34.291Z,812.00
2017-11-11T06:41:34.266Z,796.00
2017-11-11T06:42:34.254Z,828.00
2017-11-11T06:43:34.259Z,856.00
2017-11-11T06:44:34.241Z,888.00
2017-11-11T06:45:34.241Z,912.00
2017-11-11T06:46:34.233Z,936.00
2017-11-11T06:47:34.232Z,992.00
2017-11-11T06:48:34.229Z,952.00
2017-11-11T06:49:34.214Z,992.00
2017-11-11T06:50:34.218Z,1004.00
2017-11-11T06:51:34.222Z,1072.00
2017-11-11T06:52:34.195Z,1080.00
2017-11-11T06:53:34.210Z,1140.00
2017-11-11T06:54:34.181Z,1176.00
2017-11-11T06:55:34.188Z,1204.00
2017-11-11T06:56:34.172Z,1216.00
2017-11-11T06:57:34.166Z,1276.00
2017-11-11T06:58:34.187Z,1308.00
2017-11-11T06:59:34.157Z,1344.00
2017-11-11T07:00:34.166Z,1440.00
2017-11-11T07:01:34.145Z,1436.00
2017-11-11T07:02:34.141Z,1504.00
2017-11-11T07:03:34.137Z,1468.00
2017-11-11T07:04:34.130Z,1408.00
2017-11-11T07:05:34.126Z,1348.00
2017-11-11T07:06:34.130Z,1352.00
2017-11-11T07:07:34.119Z,1348.00
2017-11-11T07:08:34.110Z,1344.00
2017-11-11T07:09:34.136Z,1436.00
2017-11-11T07:10:34.096Z,1564.00
2017-11-11T07:11:34.108Z,1728.00
2017-11-11T07:12:34.083Z,1684.00
2017-11-11T07:13:34.092Z,1776.00
2017-11-11T07:14:34.085Z,1784.00
2017-11-11T07:15:34.072Z,1728.00
2017-11-11T07:16:34.063Z,1608.00
2017-11-11T07:17:34.080Z,1520.00
2017-11-11T07:18:34.051Z,1624.00
2017-11-11T07:19:34.050Z,1944.00
2017-11-11T07:20:34.041Z,1896.00
2017-11-11T07:21:34.044Z,1872.00
2017-11-11T07:22:34.049Z,1936.00
2017-11-11T07:23:34.031Z,1976.00
2017-11-11T07:24:34.021Z,1968.00
2017-11-11T07:25:34.015Z,1980.00
2017-11-11T07:26:34.031Z,1912.00
2017-11-11T07:27:34.008Z,2064.00
2017-11-11T07:28:34.000Z,2212.00
2017-11-11T07:29:34.004Z,2544.00
2017-11-11T07:30:34.010Z,2348.00
2017-11-11T07:31:34.021Z,2168.00
2017-11-11T07:32:33.978Z,2284.00
2017-11-11T07:33:33.973Z,2500.00
2017-11-11T07:34:33.995Z,2500.00
2017-11-11T07:35:33.963Z,2464.00
2017-11-11T07:36:33.954Z,2332.00
2017-11-11T07:37:33.961Z,2572.00
2017-11-11T07:38:33.966Z,2564.00
2017-11-11T07:39:33.972Z,2584.00
2017-11-11T07:40:33.935Z,2628.00
2017-11-11T07:41:33.938Z,2484.00
2017-11-11T07:42:33.932Z,2376.00
2017-11-11T07:43:33.929Z,2436.00
2017-11-11T07:44:33.942Z,2680.00
2017-11-11T07:45:33.932Z,2980.00
2017-11-11T07:46:33.940Z,3276.00
2017-11-11T07:47:33.978Z,3004.00
2017-11-11T07:48:33.901Z,2904.00
2017-11-11T07:49:33.906Z,2804.00
2017-11-11T07:50:33.894Z,2544.00
2017-11-11T07:51:33.894Z,2488.00
2017-11-11T07:52:33.878Z,2732.00
2017-11-11T07:53:33.877Z,2872.00
2017-11-11T07:54:33.875Z,2568.00
2017-11-11T07:55:33.864Z,2512.00
2017-11-11T07:56:33.861Z,2556.00
2017-11-11T07:57:33.894Z,2568.00
2017-11-11T07:58:33.865Z,2588.00
2017-11-11T07:59:33.862Z,2572.00
2017-11-11T08:00:33.839Z,2636.00
2017-11-11T08:01:33.869Z,2568.00
2017-11-11T08:02:33.844Z,2456.00
2017-11-11T08:03:33.828Z,2344.00
2017-11-11T08:04:33.838Z,2408.00
2017-11-11T08:05:33.822Z,2760.00
2017-11-11T08:06:33.820Z,2784.00
2017-11-11T08:07:33.858Z,2612.00
2017-11-11T08:08:33.817Z,2464.00
2017-11-11T08:09:33.801Z,2228.00
2017-11-11T08:10:33.867Z,1924.00
2017-11-11T08:11:33.832Z,1700.00
2017-11-11T08:12:33.846Z,1792.00
2017-11-11T08:13:33.782Z,2136.00
2017-11-11T08:14:33.785Z,2164.00
2017-11-11T08:15:33.784Z,2176.00
2017-11-11T08:16:33.782Z,2316.00
2017-11-11T08:17:33.785Z,2416.00
2017-11-11T08:18:33.789Z,2532.00
2017-11-11T08:19:33.760Z,2668.00
2017-11-11T08:20:33.767Z,2708.00
2017-11-11T08:21:33.779Z,2752.00
2017-11-11T08:22:33.744Z,3112.00
2017-11-11T08:23:33.745Z,3404.00
2017-11-11T08:24:33.756Z,3360.00
2017-11-11T08:25:33.737Z,3528.00
2017-11-11T08:26:33.724Z,3880.00
2017-11-11T08:27:33.772Z,3952.00
2017-11-11T08:28:33.721Z,3636.00
2017-11-11T08:29:33.725Z,3428.00
2017-11-11T08:30:33.709Z,3212.00
2017-11-11T08:31:33.719Z,3088.00
2017-11-11T08:32:33.707Z,3204.00
2017-11-11T08:33:33.716Z,3260.00
2017-11-11T08:34:33.699Z,3048.00
2017-11-11T08:35:33.708Z,2900.00
2017-11-11T08:36:33.683Z,3112.00
2017-11-11T08:37:33.687Z,3368.00
2017-11-11T08:38:33.681Z,3220.00
2017-11-11T08:39:33.671Z,2940.00
2017-11-11T08:40:33.669Z,2684.00
2017-11-11T08:41:33.681Z,2452.00
2017-11-11T08:42:33.659Z,2488.00
2017-11-11T08:43:33.668Z,2308.00
2017-11-11T08:44:33.653Z,2860.00
2017-11-11T08:45:33.655Z,3332.00
2017-11-11T08:46:33.649Z,3512.00
2017-11-11T08:47:33.647Z,3624.00
2017-11-11T08:48:33.639Z,3756.00
2017-11-11T08:49:33.628Z,3796.00
2017-11-11T08:50:33.629Z,3468.00
2017-11-11T08:51:33.703Z,2884.00
2017-11-11T08:52:33.634Z,2704.00
2017-11-11T08:53:33.617Z,2720.00
2017-11-11T08:54:33.612Z,3248.00
2017-11-11T08:55:33.604Z,3728.00
2017-11-11T08:56:33.604Z,4116.00
2017-11-11T08:57:33.609Z,4296.00
2017-11-11T08:58:33.600Z,4124.00
2017-11-11T08:59:33.602Z,4016.00
2017-11-11T09:00:33.584Z,4048.00
2017-11-11T09:01:33.597Z,4144.00
2017-11-11T09:02:33.753Z,3840.00
2017-11-11T09:03:33.589Z,3448.00
2017-11-11T09:04:33.646Z,3412.00
2017-11-11T09:05:33.573Z,3928.00
2017-11-11T09:06:33.562Z,4364.00
2017-11-11T09:07:33.561Z,4464.00
2017-11-11T09:08:33.608Z,4464.00
2017-11-11T09:09:33.652Z,4232.00
2017-11-11T09:10:33.542Z,3776.00
2017-11-11T09:11:33.541Z,3796.00
2017-11-11T09:12:33.546Z,3944.00
2017-11-11T09:13:33.539Z,3636.00
2017-11-11T09:14:33.529Z,3504.00
2017-11-11T09:15:33.534Z,2904.00
2017-11-11T09:16:33.526Z,3236.00
2017-11-11T09:17:33.515Z,3192.00
2017-11-11T09:18:33.522Z,3224.00
2017-11-11T09:19:33.506Z,3348.00
2017-11-11T09:20:33.509Z,3796.00
2017-11-11T09:21:33.509Z,4088.00
2017-11-11T09:22:33.504Z,3968.00
2017-11-11T09:23:33.495Z,3632.00
2017-11-11T09:24:33.493Z,3884.00
2017-11-11T09:25:33.490Z,4308.00
2017-11-11T09:26:33.482Z,4964.00
2017-11-11T09:27:33.482Z,5340.00
2017-11-11T09:28:33.475Z,5472.00
2017-11-11T09:29:33.468Z,5516.00
2017-11-11T09:30:33.462Z,5652.00
2017-11-11T09:31:33.478Z,5720.00
2017-11-11T09:32:33.465Z,6736.00
2017-11-11T09:33:33.476Z,6384.00
2017-11-11T09:34:33.452Z,5868.00
2017-11-11T09:35:33.445Z,5988.00
2017-11-11T09:36:33.440Z,5436.00
2017-11-11T09:37:34.374Z,3704.00
2017-11-11T09:38:33.443Z,3012.00
2017-11-11T09:39:33.434Z,2932.00
2017-11-11T09:40:33.436Z,2992.00
2017-11-11T09:41:33.422Z,2736.00
2017-11-11T09:42:33.423Z,2492.00
2017-11-11T09:43:33.457Z,2148.00
2017-11-11T09:44:33.410Z,2100.00
2017-11-11T09:45:33.412Z,2260.00
2017-11-11T09:46:33.409Z,2888.00
2017-11-11T09:47:33.654Z,2952.00
2017-11-11T09:48:33.457Z,3052.00
2017-11-11T09:49:33.397Z,3348.00
2017-11-11T09:50:33.390Z,2460.00
2017-11-11T09:51:33.386Z,2076.00
2017-11-11T09:52:33.398Z,1820.00
2017-11-11T09:53:33.379Z,2216.00
2017-11-11T09:54:33.376Z,1884.00
2017-11-11T09:55:34.733Z,2160.00
2017-11-11T09:56:33.371Z,2780.00
2017-11-11T09:57:33.367Z,3520.00
2017-11-11T09:58:33.365Z,3704.00
2017-11-11T09:59:33.359Z,3312.00
2017-11-11T10:00:33.385Z,2788.00
2017-11-11T10:01:33.348Z,2336.00
2017-11-11T10:02:33.569Z,2700.00
2017-11-11T10:03:33.337Z,2800.00
2017-11-11T10:04:33.336Z,3588.00
2017-11-11T10:05:33.331Z,4216.00
2017-11-11T10:06:33.329Z,4880.00
2017-11-11T10:07:33.326Z,5080.00
2017-11-11T10:08:33.327Z,5596.00
2017-11-11T10:09:33.316Z,5544.00
2017-11-11T10:10:33.316Z,5348.00
2017-11-11T10:11:33.310Z,5292.00
2017-11-11T10:12:33.311Z,4776.00
2017-11-11T10:13:33.306Z,4812.00
2017-11-11T10:14:33.294Z,5120.00
2017-11-11T10:15:33.291Z,4780.00
2017-11-11T10:16:33.287Z,4500.00
2017-11-11T10:17:33.299Z,4808.00
2017-11-11T10:18:33.279Z,3968.00
2017-11-11T10:19:33.600Z,4056.00
2017-11-11T10:20:33.275Z,4492.00
2017-11-11T10:21:33.270Z,4548.00
2017-11-11T10:22:33.275Z,5184.00
2017-11-11T10:23:33.264Z,5232.00
2017-11-11T10:24:33.260Z,6128.00
2017-11-11T10:25:33.707Z,6756.00
2017-11-11T10:26:33.270Z,7280.00
2017-11-11T10:27:33.252Z,7364.00
2017-11-11T10:28:33.253Z,7136.00
2017-11-11T10:29:33.251Z,6664.00
2017-11-11T10:30:33.245Z,6156.00
2017-11-11T10:31:33.248Z,5888.00
2017-11-11T10:32:33.269Z,5484.00
2017-11-11T10:33:33.232Z,5364.00
2017-11-11T10:34:33.246Z,5196.00
2017-11-11T10:35:33.222Z,5040.00
2017-11-11T10:36:33.245Z,4608.00
2017-11-11T10:37:33.218Z,4688.00
2017-11-11T10:38:33.821Z,4872.00
2017-11-11T10:39:33.230Z,4384.00
2017-11-11T10:40:33.209Z,3688.00
2017-11-11T10:41:33.250Z,3348.00
2017-11-11T10:42:33.206Z,3868.00
2017-11-11T10:43:33.220Z,3696.00
2017-11-11T10:44:33.452Z,3700.00
2017-11-11T10:45:34.097Z,4420.00
2017-11-11T10:46:33.188Z,4340.00
2017-11-11T10:47:34.465Z,3600.00
2017-11-11T10:48:33.209Z,3924.00
2017-11-11T10:49:33.176Z,4148.00
2017-11-11T10:50:33.210Z,4008.00
2017-11-11T10:51:33.175Z,3324.00
2017-11-11T10:52:33.184Z,3520.00
2017-11-11T10:53:33.172Z,3832.00
2017-11-11T10:54:33.165Z,4212.00
2017-11-11T10:55:33.165Z,5128.00
2017-11-11T10:56:33.158Z,5120.00
2017-11-11T10:57:33.161Z,4668.00
2017-11-11T10:58:33.159Z,4520.00
2017-11-11T10:59:33.458Z,4972.00
2017-11-11T11:00:33.148Z,5352.00
2017-11-11T11:01:33.373Z,5524.00
2017-11-11T11:02:33.136Z,5496.00
2017-11-11T11:03:33.501Z,5512.00
2017-11-11T11:04:33.142Z,5036.00
2017-11-11T11:05:33.436Z,4624.00
2017-11-11T11:06:33.231Z,4376.00
2017-11-11T11:07:33.124Z,4364.00
2017-11-11T11:08:33.118Z,4612.00
2017-11-11T11:09:33.115Z,4264.00
2017-11-11T11:10:33.109Z,4236.00
2017-11-11T11:11:33.117Z,4280.00
2017-11-11T11:12:33.108Z,3452.00
2017-11-11T11:13:33.098Z,5128.00
2017-11-11T11:14:33.094Z,4676.00
2017-11-11T11:15:33.093Z,4132.00
2017-11-11T11:16:33.116Z,4504.00
2017-11-11T11:17:33.096Z,4528.00
2017-11-11T11:18:33.085Z,4808.00
2017-11-11T11:19:33.081Z,4428.00
2017-11-11T11:20:33.086Z,4280.00
2017-11-11T11:21:33.086Z,5232.00
2017-11-11T11:22:33.070Z,5240.00
2017-11-11T11:23:33.099Z,5136.00
2017-11-11T11:24:33.088Z,5216.00
2017-11-11T11:25:33.093Z,4676.00
2017-11-11T11:26:33.062Z,3364.00
2017-11-11T11:27:33.058Z,3152.00
2017-11-11T11:28:33.060Z,2608.00
2017-11-11T11:29:33.055Z,2504.00
2017-11-11T11:30:33.051Z,3164.00
2017-11-11T11:31:33.059Z,4680.00
2017-11-11T11:32:33.042Z,3228.00
2017-11-11T11:33:33.074Z,2816.00
2017-11-11T11:34:33.034Z,2888.00
2017-11-11T11:35:33.039Z,1980.00
2017-11-11T11:36:33.031Z,1724.00
2017-11-11T11:37:33.027Z,1492.00
2017-11-11T11:38:33.037Z,1536.00
2017-11-11T11:39:33.021Z,1564.00
2017-11-11T11:40:33.022Z,1240.00
2017-11-11T11:41:33.018Z,1232.00
2017-11-11T11:42:33.025Z,1420.00
2017-11-11T11:43:33.013Z,1604.00
2017-11-11T11:44:33.019Z,1580.00
2017-11-11T11:45:33.026Z,1456.00
2017-11-11T11:46:33.000Z,1732.00
2017-11-11T11:47:33.009Z,2532.00
2017-11-11T11:48:32.992Z,3212.00
2017-11-11T11:49:32.989Z,3284.00
2017-11-11T11:50:32.983Z,3764.00
2017-11-11T11:51:32.983Z,3676.00
2017-11-11T11:52:32.979Z,3180.00
2017-11-11T11:53:33.013Z,2944.00
2017-11-11T11:54:32.979Z,3052.00
2017-11-11T11:55:32.963Z,4332.00
2017-11-11T11:56:32.973Z,4608.00
2017-11-11T11:57:32.963Z,4240.00
2017-11-11T11:58:32.954Z,4284.00
2017-11-11T11:59:32.983Z,4264.00
2017-11-11T12:00:32.954Z,3668.00
2017-11-11T12:01:32.963Z,3696.00
2017-11-11T12:02:32.951Z,3672.00
2017-11-11T12:03:32.941Z,3480.00
2017-11-11T12:04:32.932Z,3388.00
2017-11-11T12:05:32.936Z,3840.00
2017-11-11T12:06:32.930Z,4360.00
2017-11-11T12:07:32.920Z,5168.00
2017-11-11T12:08:32.945Z,5176.00
2017-11-11T12:09:32.930Z,5060.00
2017-11-11T12:10:32.921Z,5040.00
2017-11-11T12:11:32.936Z,5712.00
2017-11-11T12:12:32.906Z,6240.00
2017-11-11T12:13:32.901Z,6064.00
2017-11-11T12:14:32.899Z,5716.00
2017-11-11T12:15:32.923Z,5684.00
2017-11-11T12:16:32.903Z,5768.00
2017-11-11T12:17:32.903Z,5760.00
2017-11-11T12:18:32.890Z,5760.00
2017-11-11T12:19:32.892Z,5592.00
2017-11-11T12:20:32.883Z,5364.00
2017-11-11T12:21:32.893Z,5088.00
2017-11-11T12:22:32.888Z,4440.00
2017-11-11T12:23:32.880Z,3828.00
2017-11-11T12:24:32.875Z,3640.00
2017-11-11T12:25:32.874Z,3952.00
2017-11-11T12:26:32.895Z,4408.00
2017-11-11T12:27:32.864Z,4736.00
2017-11-11T12:28:32.871Z,5084.00
2017-11-11T12:29:32.857Z,5180.00
2017-11-11T12:30:32.851Z,5248.00
2017-11-11T12:31:32.859Z,6168.00
2017-11-11T12:32:32.854Z,5988.00
2017-11-11T12:33:32.850Z,5396.00
2017-11-11T12:34:32.847Z,5220.00
2017-11-11T12:35:32.837Z,4752.00
2017-11-11T12:36:32.832Z,4748.00
2017-11-11T12:37:32.869Z,5068.00
2017-11-11T12:38:32.824Z,5128.00
2017-11-11T12:39:32.823Z,5228.00
2017-11-11T12:40:32.822Z,5360.00